Terminal Aerodrome Forecast
Issued by NWS

Home | Current Version | Previous Version | Text Only | Print | Product List | Glossary On
Versions: 1 2 3 4 5 6 7 8 9 10 11 12 13 14 15 16 17 18 19 20 21 22 23 24 25 26 27 28 29 30 31
000
FTUS43 KDDC 250300 AAA
TAFGCK
TAF AMD
KGCK 250300Z 2503/2524 14011KT P6SM BKN060
     FM250400 15017KT P6SM SCT200 WS020/16045KT
     FM250900 17011KT P6SM SCT150=

USA.gov is the U.S. government's official web portal to all federal, state and local government web resources and services.